Time;durP1;ratioP1;P1;durP2;ratioP2;P2;SDS_P1;SDS_P2;PMS_P1;PMS_P2;Temp;Humidity;BMP_temperature;BMP_pressure;BME280_temperature;BME280_humidity;BME280_pressure;Samples;Min_cycle;Max_cycle;Signal;HPM_P1;HPM_P2
2022/09/11 00:01:20;;;;;;;;;2.00;2.00;;;;;22.99;56.09;100463.70;110469;1262;13867;-61
2022/09/11 00:03:47;;;;;;;;;3.00;3.00;;;;;22.99;56.12;100460.88;110494;1264;13512;-63
2022/09/11 00:06:15;;;;;;;;;2.33;2.00;;;;;22.99;56.11;100461.42;110448;1262;14225;-63
2022/09/11 00:08:42;;;;;;;;;2.00;2.00;;;;;22.97;56.21;100457.97;110469;1262;14177;-63
2022/09/11 00:11:09;;;;;;;;;2.00;2.00;;;;;22.97;56.14;100459.10;110397;1263;14847;-61
2022/09/11 00:13:37;;;;;;;;;2.00;2.00;;;;;22.97;56.21;100460.57;110417;1262;13858;-63
2022/09/11 00:16:04;;;;;;;;;2.00;2.00;;;;;22.98;56.10;100460.45;110288;1262;14062;-63
2022/09/11 00:18:34;;;;;;;;;3.00;3.00;;;;;22.98;56.15;100461.91;110406;1263;13118;-62
2022/09/11 00:21:02;;;;;;;;;2.00;2.00;;;;;22.97;56.01;100462.67;110451;1262;13799;-64
2022/09/11 00:23:29;;;;;;;;;2.00;2.00;;;;;22.98;56.12;100465.41;110441;1262;14584;-61
2022/09/11 00:25:56;;;;;;;;;2.00;2.00;;;;;22.96;56.14;100461.03;110433;1262;14846;-62
2022/09/11 00:28:23;;;;;;;;;2.33;2.33;;;;;22.96;56.13;100459.94;110441;1262;13974;-64
2022/09/11 00:30:51;;;;;;;;;2.00;2.00;;;;;22.97;56.08;100462.55;110506;1263;13137;-62
2022/09/11 00:33:18;;;;;;;;;2.00;2.00;;;;;22.97;56.07;100458.55;110468;1262;15595;-61
2022/09/11 00:35:45;;;;;;;;;2.00;2.00;;;;;22.97;56.09;100459.60;110453;1263;13661;-63
2022/09/11 00:38:13;;;;;;;;;2.33;2.00;;;;;22.97;56.05;100450.90;110415;1262;14256;-64
2022/09/11 00:40:40;;;;;;;;;2.00;2.00;;;;;22.97;56.06;100448.55;110488;1264;14476;-61
2022/09/11 00:43:08;;;;;;;;;2.33;2.00;;;;;22.97;56.09;100444.51;110446;1263;14086;-61
2022/09/11 00:45:35;;;;;;;;;3.67;2.00;;;;;22.98;56.03;100443.46;110494;1264;12167;-63
2022/09/11 00:48:02;;;;;;;;;3.00;2.00;;;;;22.97;56.05;100442.48;110470;1262;22265;-63
2022/09/11 00:50:30;;;;;;;;;2.67;2.00;;;;;22.97;56.00;100436.86;110447;1264;14308;-64
2022/09/11 00:52:57;;;;;;;;;2.00;2.00;;;;;22.98;55.97;100433.03;110482;1264;14364;-63
2022/09/11 00:55:26;;;;;;;;;2.00;2.00;;;;;23.00;55.96;100435.07;110430;1263;14460;-63
2022/09/11 00:57:53;;;;;;;;;2.00;2.00;;;;;22.99;55.91;100427.98;110472;1263;12932;-61
2022/09/11 01:00:21;;;;;;;;;2.00;2.00;;;;;22.99;56.07;100424.80;110363;1264;13190;-62
2022/09/11 01:02:48;;;;;;;;;2.00;2.00;;;;;22.98;56.03;100425.27;110399;1262;13996;-60
2022/09/11 01:05:16;;;;;;;;;2.00;2.00;;;;;22.99;56.02;100421.10;110410;1262;13741;-62
2022/09/11 01:07:43;;;;;;;;;2.00;2.00;;;;;22.99;55.97;100419.88;110465;1264;14652;-64
2022/09/11 01:10:11;;;;;;;;;2.67;2.67;;;;;22.99;56.03;100422.81;110455;1264;13315;-61
2022/09/11 01:12:38;;;;;;;;;2.33;2.00;;;;;22.98;56.04;100416.63;110436;1264;12537;-63
2022/09/11 01:15:05;;;;;;;;;3.00;3.00;;;;;22.99;56.00;100415.67;110440;1263;13308;-62
2022/09/11 01:17:33;;;;;;;;;2.33;2.33;;;;;22.99;56.04;100414.08;110431;1262;13534;-63
2022/09/11 01:20:00;;;;;;;;;5.00;3.00;;;;;22.98;56.06;100413.90;110447;1263;14362;-65
2022/09/11 01:22:29;;;;;;;;;3.00;3.00;;;;;22.98;56.02;100412.39;110457;1262;14220;-62
2022/09/11 01:24:57;;;;;;;;;2.00;2.00;;;;;22.97;56.08;100413.52;110490;1265;13108;-60
2022/09/11 01:27:24;;;;;;;;;2.67;2.00;;;;;22.97;56.15;100415.24;110471;1262;13195;-61
2022/09/11 01:29:51;;;;;;;;;2.00;2.00;;;;;22.97;56.08;100413.36;110437;1264;13857;-62
2022/09/11 01:32:18;;;;;;;;;2.33;2.33;;;;;22.98;56.10;100414.70;110460;1263;14246;-64
2022/09/11 01:34:46;;;;;;;;;2.33;2.00;;;;;22.97;56.07;100412.59;110453;1262;14776;-61
2022/09/11 01:37:13;;;;;;;;;5.00;2.67;;;;;22.98;56.07;100413.56;110430;1262;13641;-65
2022/09/11 01:39:40;;;;;;;;;2.00;2.00;;;;;22.97;56.09;100412.77;110490;1263;13223;-64
2022/09/11 01:42:07;;;;;;;;;2.00;2.00;;;;;22.97;56.08;100410.27;110468;1262;14541;-62
2022/09/11 01:44:35;;;;;;;;;4.00;3.00;;;;;22.97;56.09;100413.94;110469;1263;14316;-63
2022/09/11 01:47:02;;;;;;;;;2.00;2.00;;;;;22.97;56.10;100412.77;110437;1263;14705;-64
2022/09/11 01:49:29;;;;;;;;;2.00;2.00;;;;;22.97;56.11;100414.99;110463;1264;13929;-62
2022/09/11 01:51:57;;;;;;;;;2.00;2.00;;;;;22.97;56.08;100411.55;110488;1264;13110;-65
2022/09/11 01:54:24;;;;;;;;;2.33;2.00;;;;;22.97;56.11;100410.58;110510;1264;12954;-63
2022/09/11 01:56:51;;;;;;;;;3.00;3.00;;;;;22.97;56.13;100407.00;110470;1264;14200;-62
2022/09/11 01:59:19;;;;;;;;;3.00;2.00;;;;;22.98;56.14;100409.62;110448;1263;14136;-62
2022/09/11 02:01:50;;;;;;;;;2.33;2.00;;;;;22.97;56.13;100410.08;110473;1263;14217;-62
2022/09/11 02:04:17;;;;;;;;;2.33;2.00;;;;;22.96;56.20;100405.87;110434;1264;17852;-62
2022/09/11 02:06:44;;;;;;;;;2.00;2.00;;;;;22.96;56.19;100403.85;110481;1264;12909;-63
2022/09/11 02:09:12;;;;;;;;;2.00;2.00;;;;;22.96;56.17;100401.66;110428;1263;13513;-65
2022/09/11 02:11:40;;;;;;;;;1.00;1.00;;;;;22.97;56.17;100405.95;110435;1263;15433;-64
2022/09/11 02:14:09;;;;;;;;;2.00;2.00;;;;;22.96;56.14;100405.70;110313;1262;13104;-65
2022/09/11 02:16:36;;;;;;;;;2.00;2.00;;;;;22.97;56.12;100405.79;110471;1262;13554;-63
2022/09/11 02:19:04;;;;;;;;;2.00;2.00;;;;;22.97;56.10;100403.89;110458;1263;13656;-62
2022/09/11 02:21:31;;;;;;;;;2.00;2.00;;;;;22.96;56.18;100398.42;110480;1264;13148;-62
2022/09/11 02:23:58;;;;;;;;;2.00;2.00;;;;;22.96;56.17;100400.23;110480;1263;14220;-62
2022/09/11 02:26:25;;;;;;;;;3.00;2.00;;;;;22.96;56.25;100394.09;110504;1263;14204;-60
2022/09/11 02:28:53;;;;;;;;;2.00;2.00;;;;;22.95;56.18;100393.20;110483;1264;18046;-63
2022/09/11 02:31:20;;;;;;;;;1.00;1.00;;;;;22.96;56.17;100387.11;110476;1263;13273;-63
2022/09/11 02:33:47;;;;;;;;;2.67;2.00;;;;;22.95;56.21;100386.33;110512;1264;12702;-64
2022/09/11 02:36:15;;;;;;;;;2.00;2.00;;;;;22.95;56.14;100386.27;110491;1263;14161;-63
2022/09/11 02:38:43;;;;;;;;;3.00;3.00;;;;;22.95;56.14;100383.41;110475;1263;14617;-62
2022/09/11 02:41:12;;;;;;;;;2.00;2.00;;;;;22.95;56.15;100385.38;110485;1264;13859;-62
2022/09/11 02:43:40;;;;;;;;;2.00;2.00;;;;;22.96;56.14;100383.32;110411;1263;13931;-65
2022/09/11 02:46:07;;;;;;;;;2.00;2.00;;;;;22.95;56.12;100384.33;110497;1264;14349;-62
2022/09/11 02:48:35;;;;;;;;;2.00;2.00;;;;;22.95;56.15;100385.08;110487;1263;12948;-63
2022/09/11 02:51:02;;;;;;;;;1.00;1.00;;;;;22.94;56.22;100380.57;110465;1263;14480;-63
2022/09/11 02:53:29;;;;;;;;;1.00;1.00;;;;;22.95;56.14;100380.09;110449;1262;13959;-62
2022/09/11 02:55:57;;;;;;;;;2.00;2.00;;;;;22.95;56.12;100382.84;110481;1262;12857;-63
2022/09/11 02:58:25;;;;;;;;;2.00;2.00;;;;;22.95;56.09;100375.54;110466;1262;14225;-61
2022/09/11 03:00:53;;;;;;;;;2.00;2.00;;;;;22.96;56.07;100373.45;110503;1264;13178;-63
2022/09/11 03:03:20;;;;;;;;;1.00;1.00;;;;;22.97;56.09;100375.02;110447;1263;13771;-64
2022/09/11 03:05:48;;;;;;;;;2.00;2.00;;;;;22.95;56.11;100376.46;110466;1264;14061;-60
2022/09/11 03:08:15;;;;;;;;;2.00;2.00;;;;;22.94;56.09;100370.90;110452;1264;14232;-63
2022/09/11 03:10:45;;;;;;;;;2.00;2.00;;;;;22.94;56.07;100371.25;110480;1263;14955;-62
2022/09/11 03:13:13;;;;;;;;;2.00;2.00;;;;;22.96;56.06;100372.02;110421;1264;13209;-62
2022/09/11 03:15:42;;;;;;;;;2.00;2.00;;;;;22.94;56.06;100373.46;110492;1264;13157;-64
2022/09/11 03:18:10;;;;;;;;;2.67;2.00;;;;;22.95;56.11;100371.58;110433;1264;13155;-62
2022/09/11 03:20:37;;;;;;;;;1.00;1.00;;;;;22.94;56.09;100373.28;110459;1262;13329;-64
2022/09/11 03:23:09;;;;;;;;;2.00;2.00;;;;;22.95;56.06;100373.90;110409;1262;12773;-64
2022/09/11 03:25:36;;;;;;;;;2.00;2.00;;;;;22.95;56.04;100373.00;110523;1264;13028;-64
2022/09/11 03:28:04;;;;;;;;;2.00;2.00;;;;;22.94;56.08;100371.31;110495;1263;13199;-61
2022/09/11 03:30:31;;;;;;;;;1.00;1.00;;;;;22.94;56.08;100374.39;110398;1264;15759;-64
2022/09/11 03:32:59;;;;;;;;;2.00;1.00;;;;;22.94;56.11;100372.88;110318;1264;13999;-61
2022/09/11 03:35:27;;;;;;;;;2.00;2.00;;;;;22.93;56.10;100370.18;110369;1264;13102;-60
2022/09/11 03:37:55;;;;;;;;;2.00;2.00;;;;;22.93;56.12;100372.70;110404;1264;14538;-63
2022/09/11 03:40:22;;;;;;;;;2.00;2.00;;;;;22.94;56.05;100369.67;110318;1264;14061;-63
2022/09/11 03:42:49;;;;;;;;;2.00;1.00;;;;;22.95;56.04;100369.98;110500;1264;12257;-60
2022/09/11 03:45:16;;;;;;;;;1.67;1.67;;;;;22.94;56.01;100371.48;110443;1263;14124;-61
2022/09/11 03:47:44;;;;;;;;;1.00;1.00;;;;;22.95;56.01;100372.13;110458;1263;13668;-62
2022/09/11 03:50:11;;;;;;;;;2.00;2.00;;;;;22.95;56.05;100371.79;110455;1264;14405;-61
2022/09/11 03:52:38;;;;;;;;;1.50;1.50;;;;;22.94;56.01;100373.60;110469;1263;14858;-60
2022/09/11 03:55:05;;;;;;;;;2.00;1.67;;;;;22.95;55.94;100375.54;110473;1262;15058;-66
2022/09/11 03:57:33;;;;;;;;;2.00;2.00;;;;;22.95;56.00;100377.38;110490;1264;16359;-63
2022/09/11 04:00:01;;;;;;;;;2.67;2.67;;;;;22.95;55.96;100382.89;110439;1263;16096;-61
2022/09/11 04:02:29;;;;;;;;;1.33;1.33;;;;;22.94;56.02;100376.77;110510;1262;14537;-61
2022/09/11 04:04:56;;;;;;;;;2.00;2.00;;;;;22.94;55.94;100378.41;110445;1264;14004;-64
2022/09/11 04:07:24;;;;;;;;;1.67;1.67;;;;;22.94;55.96;100383.30;110500;1262;14541;-64
2022/09/11 04:09:51;;;;;;;;;1.67;1.67;;;;;22.94;55.99;100383.34;110529;1264;13941;-62
2022/09/11 04:12:18;;;;;;;;;1.00;1.00;;;;;22.94;55.94;100391.49;110432;1263;14291;-63
2022/09/11 04:14:47;;;;;;;;;1.00;1.00;;;;;22.95;55.94;100383.05;110506;1262;13591;-62
2022/09/11 04:17:14;;;;;;;;;2.00;2.00;;;;;22.94;55.90;100384.73;110457;1262;14335;-63
2022/09/11 04:19:41;;;;;;;;;1.00;1.00;;;;;22.94;55.93;100384.40;110408;1262;14775;-64
2022/09/11 04:22:09;;;;;;;;;2.00;2.00;;;;;22.94;55.91;100382.39;110481;1262;14738;-60
2022/09/11 04:24:36;;;;;;;;;1.67;1.67;;;;;22.94;55.95;100384.05;110480;1264;12656;-63
2022/09/11 04:27:04;;;;;;;;;2.00;2.00;;;;;22.93;55.91;100382.55;110461;1262;14377;-61
2022/09/11 04:29:31;;;;;;;;;2.00;2.00;;;;;22.93;55.93;100380.09;110439;1264;13782;-62
2022/09/11 04:31:58;;;;;;;;;1.00;1.00;;;;;22.92;55.94;100379.01;110482;1262;13750;-64
2022/09/11 04:34:26;;;;;;;;;1.00;1.00;;;;;22.94;55.87;100379.67;110460;1262;13347;-61
2022/09/11 04:36:55;;;;;;;;;2.00;2.00;;;;;22.94;55.92;100378.27;110516;1264;12424;-63
2022/09/11 04:39:22;;;;;;;;;2.00;2.00;;;;;22.93;55.95;100376.95;110545;1263;14915;-63
2022/09/11 04:41:49;;;;;;;;;1.67;1.00;;;;;22.92;55.91;100381.36;110468;1262;15028;-60
2022/09/11 04:44:17;;;;;;;;;2.00;2.00;;;;;22.94;56.00;100381.15;110446;1264;13372;-64
2022/09/11 04:46:45;;;;;;;;;1.33;1.33;;;;;22.91;55.92;100383.67;110415;1262;13850;-61
2022/09/11 04:49:13;;;;;;;;;3.00;2.00;;;;;22.90;55.91;100384.55;110398;1262;13490;-62
2022/09/11 04:51:40;;;;;;;;;3.00;2.00;;;;;22.90;56.01;100391.10;110500;1264;14034;-63
2022/09/11 04:54:08;;;;;;;;;1.00;1.00;;;;;22.92;56.05;100385.23;110330;1264;13582;-62
2022/09/11 04:56:36;;;;;;;;;1.00;1.00;;;;;22.92;56.06;100387.16;110378;1262;14406;-65
2022/09/11 04:59:04;;;;;;;;;3.00;2.00;;;;;22.95;56.26;100382.09;110470;1264;14411;-65
2022/09/11 05:01:32;;;;;;;;;2.00;2.00;;;;;22.99;56.60;100384.30;110527;1263;13231;-62
2022/09/11 05:04:07;;;;;;;;;1.00;1.00;;;;;23.05;56.78;100385.69;107628;1300;14220;-63
2022/09/11 05:06:34;;;;;;;;;1.00;1.00;;;;;23.09;56.68;100392.32;108841;1277;13184;-63
2022/09/11 05:09:03;;;;;;;;;2.00;2.00;;;;;23.01;56.83;100391.14;108800;1277;14706;-63
2022/09/11 05:11:30;;;;;;;;;2.00;2.00;;;;;23.00;56.88;100394.06;110333;1268;14116;-60
2022/09/11 05:13:58;;;;;;;;;2.00;2.00;;;;;23.00;56.84;100392.04;110239;1267;12954;-64
2022/09/11 05:16:27;;;;;;;;;1.00;1.00;;;;;23.02;56.74;100393.05;110304;1268;13778;-61
2022/09/11 05:18:55;;;;;;;;;1.00;1.00;;;;;23.06;57.04;100393.06;109737;1265;980566;-62
2022/09/11 05:21:23;;;;;;;;;2.00;2.00;;;;;23.06;57.11;100392.91;110405;1264;14034;-63
2022/09/11 05:23:50;;;;;;;;;1.33;1.00;;;;;23.05;57.22;100398.05;110360;1265;16656;-65
2022/09/11 05:26:17;;;;;;;;;2.00;2.00;;;;;23.05;57.14;100396.33;110384;1264;14551;-62
2022/09/11 05:28:44;;;;;;;;;2.00;2.00;;;;;23.04;57.17;100394.77;110432;1264;13385;-64
2022/09/11 05:31:12;;;;;;;;;1.00;1.00;;;;;23.04;57.04;100393.17;110421;1264;13128;-64
2022/09/11 05:33:39;;;;;;;;;3.00;3.00;;;;;23.02;57.12;100394.27;110459;1264;13132;-64
2022/09/11 05:36:06;;;;;;;;;2.00;2.00;;;;;23.03;57.14;100395.31;110396;1263;12176;-66
2022/09/11 05:38:34;;;;;;;;;2.33;2.33;;;;;23.02;57.07;100400.48;110435;1265;12947;-68
2022/09/11 05:41:01;;;;;;;;;2.00;2.00;;;;;23.02;56.96;100398.89;110447;1265;13899;-67
2022/09/11 05:43:29;;;;;;;;;4.33;3.67;;;;;23.02;56.98;100396.91;110418;1264;14592;-65
2022/09/11 05:45:56;;;;;;;;;3.00;2.00;;;;;23.01;56.89;100395.52;110470;1264;13031;-67
2022/09/11 05:48:23;;;;;;;;;3.00;3.00;;;;;23.01;56.88;100397.15;110445;1264;14142;-67
2022/09/11 05:50:51;;;;;;;;;5.00;3.00;;;;;23.01;56.75;100403.20;110472;1265;14231;-67
2022/09/11 05:53:19;;;;;;;;;3.00;3.00;;;;;23.01;56.76;100402.15;110456;1264;12579;-67
2022/09/11 05:55:47;;;;;;;;;4.00;4.00;;;;;23.00;56.83;100397.85;110438;1264;14210;-68
2022/09/11 05:58:14;;;;;;;;;2.00;2.00;;;;;23.00;56.80;100402.02;110452;1265;14312;-67
2022/09/11 06:00:45;;;;;;;;;7.00;7.00;;;;;22.99;56.75;100405.23;110460;1264;13221;-67
2022/09/11 06:03:12;;;;;;;;;8.00;8.00;;;;;22.92;56.59;100411.63;110388;1265;13952;-67
2022/09/11 06:05:40;;;;;;;;;8.33;7.67;;;;;22.74;56.28;100410.36;110385;1264;13714;-65
2022/09/11 06:08:07;;;;;;;;;12.33;12.33;;;;;22.58;56.04;100412.13;110322;1265;13177;-65
2022/09/11 06:10:35;;;;;;;;;12.00;11.50;;;;;22.43;55.79;100415.02;110327;1265;13516;-66
2022/09/11 06:13:02;;;;;;;;;21.67;15.67;;;;;22.33;55.85;100419.89;110265;1265;13129;-65
2022/09/11 06:15:31;;;;;;;;;19.67;18.33;;;;;22.33;56.00;100417.56;110312;1264;14817;-64
2022/09/11 06:17:59;;;;;;;;;16.33;16.33;;;;;22.34;55.90;100423.27;110358;1265;14203;-67
2022/09/11 06:20:26;;;;;;;;;15.33;15.00;;;;;22.31;55.83;100426.67;110357;1265;14517;-66
2022/09/11 06:22:55;;;;;;;;;18.00;16.33;;;;;22.28;55.85;100429.07;110117;1265;13794;-66
2022/09/11 06:25:22;;;;;;;;;18.00;16.00;;;;;22.41;56.04;100429.61;110377;1265;14498;-66
2022/09/11 06:27:49;;;;;;;;;15.00;12.00;;;;;22.61;56.08;100427.33;110282;1265;10370;-65
2022/09/11 06:30:17;;;;;;;;;175.00;133.25;;;;;22.74;55.92;100430.55;110171;1265;14211;-66
2022/09/11 06:32:44;;;;;;;;;287.00;213.00;;;;;22.82;55.91;100432.21;110356;1265;14765;-65
2022/09/11 06:35:11;;;;;;;;;105.00;78.50;;;;;22.84;55.47;100436.73;110378;1265;14804;-66
2022/09/11 06:37:39;;;;;;;;;118.67;87.00;;;;;22.80;54.93;100433.91;110392;1265;15275;-66
2022/09/11 06:40:06;;;;;;;;;147.25;115.00;;;;;22.78;54.94;100435.45;110430;1264;13028;-67
2022/09/11 06:42:33;;;;;;;;;140.00;102.33;;;;;22.82;55.47;100432.72;110410;1265;11808;-66
2022/09/11 06:45:01;;;;;;;;;111.00;88.00;;;;;22.85;55.55;100433.12;110378;1264;14755;-66
2022/09/11 06:47:28;;;;;;;;;91.67;64.33;;;;;22.86;55.45;100434.43;110373;1265;13876;-66
2022/09/11 06:49:55;;;;;;;;;76.00;57.00;;;;;22.84;55.26;100435.76;110372;1265;13956;-65
2022/09/11 06:52:23;;;;;;;;;70.67;49.67;;;;;22.86;55.13;100436.45;110392;1264;13361;-66
2022/09/11 06:54:50;;;;;;;;;56.00;43.00;;;;;22.89;54.85;100432.93;110421;1264;10438;-67
2022/09/11 06:57:18;;;;;;;;;54.33;38.33;;;;;22.89;54.62;100434.41;110377;1264;13491;-66
2022/09/11 06:59:46;;;;;;;;;38.67;33.67;;;;;22.89;54.76;100434.37;110359;1265;14461;-67
2022/09/11 07:02:13;;;;;;;;;35.50;27.50;;;;;22.90;54.69;100435.73;110403;1265;14522;-66
2022/09/11 07:04:40;;;;;;;;;29.00;24.00;;;;;22.89;54.75;100441.55;110268;1264;13852;-67
2022/09/11 07:07:07;;;;;;;;;26.67;23.00;;;;;22.88;54.97;100440.58;110418;1264;13212;-67
2022/09/11 07:09:35;;;;;;;;;22.33;19.67;;;;;22.85;54.92;100441.82;110528;1262;14369;-65
2022/09/11 07:12:02;;;;;;;;;20.00;17.00;;;;;22.81;54.62;100445.33;110527;1262;15421;-66
2022/09/11 07:14:31;;;;;;;;;16.00;14.33;;;;;22.79;54.48;100445.51;110492;1262;14637;-66
2022/09/11 07:16:59;;;;;;;;;19.00;16.00;;;;;22.80;54.34;100442.27;110502;1262;14526;-65
2022/09/11 07:19:26;;;;;;;;;16.33;13.00;;;;;22.81;54.26;100443.79;110563;1261;15336;-66
2022/09/11 07:21:54;;;;;;;;;16.00;14.33;;;;;22.80;54.14;100447.45;110547;1261;13046;-66
2022/09/11 07:24:21;;;;;;;;;16.33;15.00;;;;;22.79;53.92;100449.71;110521;1262;14789;-65
2022/09/11 07:26:49;;;;;;;;;13.00;12.67;;;;;22.80;53.75;100451.14;110523;1262;14396;-64
2022/09/11 07:29:16;;;;;;;;;13.33;12.00;;;;;22.82;53.61;100450.66;110461;1262;14373;-64
2022/09/11 07:31:45;;;;;;;;;10.00;10.00;;;;;22.89;53.78;100448.94;111010;1261;14840;-66
2022/09/11 07:34:12;;;;;;;;;13.00;13.00;;;;;22.96;54.18;100446.44;110544;1262;17125;-65
2022/09/11 07:36:40;;;;;;;;;11.67;11.00;;;;;23.04;54.48;100448.67;110512;1261;14851;-65
2022/09/11 07:39:07;;;;;;;;;8.67;8.00;;;;;23.07;54.37;100448.91;110518;1262;14018;-64
2022/09/11 07:41:35;;;;;;;;;10.00;8.00;;;;;23.05;54.42;100450.78;110415;1263;13100;-65
2022/09/11 07:44:04;;;;;;;;;11.00;11.00;;;;;23.03;54.49;100453.39;110366;1262;13047;-63
2022/09/11 07:46:32;;;;;;;;;14.67;12.00;;;;;22.83;54.19;100453.59;110947;1262;14822;-63
2022/09/11 07:49:00;;;;;;;;;17.67;15.67;;;;;22.68;54.44;100452.94;110431;1262;13303;-66
2022/09/11 07:51:28;;;;;;;;;15.00;12.00;;;;;22.77;54.41;100456.80;110552;1261;14467;-66
2022/09/11 07:53:56;;;;;;;;;16.00;11.33;;;;;22.85;54.39;100453.35;110506;1262;14950;-67
2022/09/11 07:56:24;;;;;;;;;11.00;10.00;;;;;22.92;54.32;100458.26;110586;1262;14714;-67
2022/09/11 07:58:52;;;;;;;;;9.00;8.00;;;;;22.93;54.45;100454.06;110542;1262;14114;-65
2022/09/11 08:01:19;;;;;;;;;11.50;11.50;;;;;22.93;54.51;100457.76;110555;1262;14771;-67
2022/09/11 08:03:48;;;;;;;;;10.00;10.00;;;;;22.93;54.60;100461.55;110575;1262;13185;-66
2022/09/11 08:06:15;;;;;;;;;7.00;7.00;;;;;22.93;54.55;100465.75;110482;1262;14603;-67
2022/09/11 08:08:43;;;;;;;;;7.67;7.00;;;;;22.92;54.62;100468.95;110514;1262;12984;-66
2022/09/11 08:11:10;;;;;;;;;7.33;7.00;;;;;22.92;54.71;100468.27;110425;1261;17924;-66
2022/09/11 08:13:37;;;;;;;;;7.00;7.00;;;;;22.93;54.66;100471.38;110385;1262;14728;-66
2022/09/11 08:16:05;;;;;;;;;9.33;8.00;;;;;22.93;54.70;100474.87;110546;1261;13167;-66
2022/09/11 08:18:34;;;;;;;;;8.00;7.00;;;;;22.94;54.71;100476.44;110534;1262;13315;-68
2022/09/11 08:21:02;;;;;;;;;7.67;7.00;;;;;22.93;54.87;100480.21;110528;1262;14582;-67
2022/09/11 08:23:31;;;;;;;;;6.00;6.00;;;;;22.91;54.90;100480.00;110526;1261;16622;-67
2022/09/11 08:25:59;;;;;;;;;6.00;6.00;;;;;22.93;54.91;100480.76;110515;1262;14044;-67
2022/09/11 08:28:27;;;;;;;;;10.33;9.33;;;;;22.95;54.83;100480.15;110528;1262;13026;-65
2022/09/11 08:30:54;;;;;;;;;12.67;12.00;;;;;22.83;54.33;100484.36;110578;1262;12918;-66
2022/09/11 08:33:21;;;;;;;;;8.00;8.00;;;;;22.66;54.25;100482.17;110526;1262;13923;-66
2022/09/11 08:35:48;;;;;;;;;7.00;7.00;;;;;22.74;54.36;100480.69;110484;1262;13678;-65
2022/09/11 08:38:16;;;;;;;;;7.67;7.00;;;;;22.82;54.22;100480.80;110557;1261;14771;-66
2022/09/11 08:40:44;;;;;;;;;7.00;6.33;;;;;22.90;54.29;100474.00;110480;1262;14393;-63
2022/09/11 08:43:11;;;;;;;;;10.00;7.50;;;;;22.96;54.46;100476.89;110436;1262;13160;-64
2022/09/11 08:45:39;;;;;;;;;7.00;7.00;;;;;23.00;54.66;100479.27;110458;1262;13009;-66
2022/09/11 08:48:08;;;;;;;;;6.67;6.67;;;;;23.02;54.72;100480.16;110516;1260;13164;-66
2022/09/11 08:50:35;;;;;;;;;8.00;7.00;;;;;23.06;54.83;100481.83;110509;1261;12803;-67
2022/09/11 08:53:03;;;;;;;;;10.50;10.00;;;;;23.00;54.73;100484.73;110544;1262;13077;-66
2022/09/11 08:55:30;;;;;;;;;14.00;11.00;;;;;22.79;54.26;100486.91;110516;1262;14346;-67
2022/09/11 08:57:58;;;;;;;;;11.50;11.50;;;;;22.62;53.78;100485.04;110573;1262;13220;-66
2022/09/11 09:00:25;;;;;;;;;15.33;13.67;;;;;22.54;53.17;100484.75;110539;1262;15126;-67
2022/09/11 09:02:53;;;;;;;;;15.00;14.50;;;;;22.50;52.95;100482.48;110578;1262;13994;-66
2022/09/11 09:05:20;;;;;;;;;13.33;12.00;;;;;22.55;52.91;100483.23;110539;1262;14388;-66
2022/09/11 09:07:47;;;;;;;;;12.00;12.00;;;;;22.52;52.43;100481.71;110476;1262;14298;-65
2022/09/11 09:10:15;;;;;;;;;16.00;14.00;;;;;22.41;52.17;100478.64;110447;1262;14639;-65
2022/09/11 09:12:44;;;;;;;;;16.33;15.00;;;;;22.34;52.05;100480.64;110544;1260;13208;-66
2022/09/11 09:15:12;;;;;;;;;11.00;11.00;;;;;22.27;51.68;100481.10;110532;1262;14807;-66
2022/09/11 09:17:40;;;;;;;;;20.50;16.50;;;;;22.16;51.40;100481.60;110562;1262;13939;-66
2022/09/11 09:20:08;;;;;;;;;19.50;15.50;;;;;22.22;51.24;100482.17;110564;1262;14663;-63
2022/09/11 09:22:35;;;;;;;;;15.00;15.00;;;;;22.23;50.97;100482.15;110607;1262;14567;-67
2022/09/11 09:25:02;;;;;;;;;14.00;12.00;;;;;22.19;50.79;100481.48;110569;1262;13127;-66
2022/09/11 09:27:30;;;;;;;;;15.00;14.00;;;;;22.19;50.70;100478.40;110561;1262;14128;-67
2022/09/11 09:29:57;;;;;;;;;14.33;11.33;;;;;22.23;50.57;100478.05;110541;1262;14061;-67
2022/09/11 09:32:25;;;;;;;;;16.00;12.00;;;;;22.24;50.33;100474.64;110549;1262;14422;-66
2022/09/11 09:34:53;;;;;;;;;16.33;14.00;;;;;22.19;50.26;100473.27;110555;1262;14338;-67
2022/09/11 09:37:20;;;;;;;;;13.67;13.33;;;;;22.14;50.13;100477.46;110529;1261;13769;-67
2022/09/11 09:39:47;;;;;;;;;16.00;14.00;;;;;22.13;50.09;100475.73;110563;1262;13189;-66
2022/09/11 09:42:15;;;;;;;;;15.33;12.00;;;;;22.18;49.85;100473.90;110530;1262;14274;-66
2022/09/11 09:44:42;;;;;;;;;14.33;12.67;;;;;22.21;49.80;100472.05;110537;1262;15561;-66
2022/09/11 09:47:10;;;;;;;;;12.00;11.50;;;;;22.19;49.56;100472.73;110543;1261;14280;-65
2022/09/11 09:49:38;;;;;;;;;12.00;11.00;;;;;22.17;49.49;100474.94;110542;1262;14643;-67
2022/09/11 09:52:05;;;;;;;;;13.33;12.00;;;;;22.20;49.37;100470.98;110612;1261;12717;-67
2022/09/11 09:54:32;;;;;;;;;11.00;11.00;;;;;22.23;49.36;100472.06;110567;1262;12104;-66
2022/09/11 09:57:01;;;;;;;;;14.00;14.00;;;;;22.16;49.19;100474.92;110564;1261;13909;-66
2022/09/11 09:59:28;;;;;;;;;13.33;11.00;;;;;22.13;49.32;100477.20;110557;1261;14054;-66
2022/09/11 10:01:56;;;;;;;;;14.50;12.00;;;;;22.17;49.07;100478.41;110490;1262;13695;-66
2022/09/11 10:04:25;;;;;;;;;14.50;13.00;;;;;22.19;48.95;100471.02;110565;1262;13272;-65
2022/09/11 10:06:54;;;;;;;;;15.00;11.33;;;;;22.18;48.81;100471.58;110606;1262;13202;-66
2022/09/11 10:09:22;;;;;;;;;11.00;11.00;;;;;22.02;49.09;100466.88;110458;1262;13572;-66
2022/09/11 10:11:49;;;;;;;;;14.50;14.00;;;;;22.06;49.03;100470.59;110427;1262;12977;-66
2022/09/11 10:14:16;;;;;;;;;11.67;11.00;;;;;22.07;48.88;100470.10;110545;1261;12989;-64
2022/09/11 10:16:44;;;;;;;;;11.00;10.00;;;;;22.01;48.77;100473.23;110453;1262;13099;-66
2022/09/11 10:19:12;;;;;;;;;11.00;11.00;;;;;22.00;48.71;100475.79;110499;1262;13020;-66
2022/09/11 10:21:39;;;;;;;;;12.00;12.00;;;;;22.09;48.66;100478.98;110474;1262;13947;-66
2022/09/11 10:24:06;;;;;;;;;13.00;11.67;;;;;22.14;48.53;100477.70;110489;1262;13133;-66
2022/09/11 10:26:34;;;;;;;;;14.00;12.00;;;;;22.01;48.59;100478.33;110445;1262;13250;-67
2022/09/11 10:29:01;;;;;;;;;11.33;10.00;;;;;22.02;48.74;100479.17;110487;1262;14140;-66
2022/09/11 10:31:29;;;;;;;;;10.67;9.33;;;;;22.06;48.74;100480.41;110590;1262;13082;-62
2022/09/11 10:33:56;;;;;;;;;9.33;9.33;;;;;22.02;48.81;100477.92;110594;1262;13046;-64
2022/09/11 10:36:23;;;;;;;;;11.33;11.33;;;;;21.98;48.88;100478.89;110560;1262;13601;-66
2022/09/11 10:38:51;;;;;;;;;11.33;11.00;;;;;21.98;48.83;100476.73;110508;1262;13200;-66
2022/09/11 10:41:19;;;;;;;;;13.00;11.67;;;;;22.02;48.86;100477.58;110560;1262;14280;-66
2022/09/11 10:43:47;;;;;;;;;12.00;11.67;;;;;22.00;48.94;100479.70;110451;1261;13971;-66
2022/09/11 10:46:14;;;;;;;;;10.50;10.50;;;;;22.00;48.79;100482.63;110631;1262;10501;-67
2022/09/11 10:48:42;;;;;;;;;13.33;11.67;;;;;22.08;48.72;100483.60;110509;1262;14355;-66
2022/09/11 10:51:11;;;;;;;;;11.50;11.00;;;;;22.21;48.82;100483.48;110470;1262;13846;-65
2022/09/11 10:53:38;;;;;;;;;14.67;13.67;;;;;22.28;48.72;100480.15;110472;1262;14108;-66
2022/09/11 10:56:05;;;;;;;;;16.67;14.33;;;;;22.36;48.93;100484.69;110511;1262;14763;-65
2022/09/11 10:58:33;;;;;;;;;14.00;11.67;;;;;22.33;48.83;100484.98;110479;1261;14480;-64
2022/09/11 11:01:00;;;;;;;;;11.67;11.67;;;;;22.29;48.84;100481.24;110519;1261;13156;-66
2022/09/11 11:03:28;;;;;;;;;14.00;11.33;;;;;22.34;48.75;100482.85;110513;1261;14138;-66
2022/09/11 11:05:55;;;;;;;;;14.00;11.50;;;;;22.27;48.77;100484.29;110462;1262;13387;-66
2022/09/11 11:08:22;;;;;;;;;11.00;11.00;;;;;22.22;48.90;100484.45;110433;1261;14546;-66
2022/09/11 11:10:50;;;;;;;;;10.67;10.33;;;;;22.24;49.29;100481.73;110435;1261;14777;-65
2022/09/11 11:13:18;;;;;;;;;13.33;11.67;;;;;22.21;50.32;100482.25;110515;1262;13979;-66